Time;durP1;ratioP1;P1;durP2;ratioP2;P2;SDS_P1;SDS_P2;PMS_P1;PMS_P2;Temp;Humidity;BMP_temperature;BMP_pressure;BME280_temperature;BME280_humidity;BME280_pressure;Samples;Min_cycle;Max_cycle;Signal;HPM_P1;HPM_P2
2023/03/13 00:01:21;;;;;;;8.60;3.60;;;;;;;18.03;35.96;98664.48;272380;1290;22089;-91
2023/03/13 00:07:36;;;;;;;6.40;3.00;;;;;;;18.06;36.20;98665.93;272627;1289;22863;-94
2023/03/13 00:21:41;;;;;;;;;;;;;;;;;;;;;
2023/03/13 00:28:18;;;;;;;6.40;2.60;;;;;;;18.04;37.31;98681.30;273168;1286;22156;-83
2023/03/13 00:34:22;;;;;;;4.20;2.20;;;;;;;17.94;37.90;98664.96;272903;1283;22263;-83
2023/03/13 00:40:26;;;;;;;4.80;1.90;;;;;;;18.15;38.20;98653.20;273037;1281;22153;-83
2023/03/13 00:46:29;;;;;;;2.40;1.70;;;;;;;18.08;38.74;98634.58;273023;1286;22410;-82
2023/03/13 00:52:32;;;;;;;4.00;1.80;;;;;;;18.28;39.05;98629.77;272967;1280;22144;-84
2023/03/13 00:58:39;;;;;;;5.00;2.00;;;;;;;18.31;39.55;98629.82;272766;1286;22246;-86
2023/03/13 01:04:42;;;;;;;3.40;1.80;;;;;;;18.32;40.08;98622.14;272711;1283;22461;-86
2023/03/13 01:10:45;;;;;;;3.10;2.00;;;;;;;18.54;39.96;98625.05;272774;1286;22396;-84
2023/03/13 01:16:50;;;;;;;3.90;1.90;;;;;;;18.63;39.91;98620.95;272865;1283;23405;-85
2023/03/13 01:22:54;;;;;;;3.30;2.10;;;;;;;18.64;40.06;98608.14;272747;1283;22387;-83
2023/03/13 01:28:57;;;;;;;3.80;1.90;;;;;;;18.12;40.94;98598.00;272769;1286;22199;-84
2023/03/13 01:35:03;;;;;;;3.10;1.90;;;;;;;18.25;41.00;98596.12;272851;1286;22492;-89
2023/03/13 01:41:11;;;;;;;4.60;2.30;;;;;;;18.33;41.10;98595.84;273017;1281;22178;-86
2023/03/13 01:47:14;;;;;;;4.20;2.30;;;;;;;18.43;40.85;98595.70;272934;1285;22354;-86
2023/03/13 01:53:45;;;;;;;3.50;1.80;;;;;;;18.55;40.80;98598.59;273050;1285;22344;-86
2023/03/13 01:59:50;;;;;;;4.20;2.00;;;;;;;18.26;41.16;98600.57;273021;1285;23525;-85
2023/03/13 02:05:54;;;;;;;4.30;2.40;;;;;;;18.30;41.15;98612.09;273150;1285;22179;-85
2023/03/13 02:12:08;;;;;;;3.10;1.80;;;;;;;18.40;40.89;98620.23;272981;1286;22142;-85
2023/03/13 02:18:12;;;;;;;3.50;2.20;;;;;;;18.34;41.03;98619.88;272946;1286;22383;-84
2023/03/13 02:24:27;;;;;;;3.70;2.10;;;;;;;18.44;41.02;98625.41;272909;1286;22254;-83
2023/03/13 02:30:30;;;;;;;3.60;1.90;;;;;;;18.50;41.06;98633.06;272934;1280;22971;-83
2023/03/13 02:36:38;;;;;;;4.50;2.00;;;;;;;18.63;41.09;98642.46;272940;1281;22205;-80
2023/03/13 02:42:43;;;;;;;4.70;2.10;;;;;;;18.87;40.68;98651.08;273039;1286;22403;-79
2023/03/13 02:48:52;;;;;;;3.60;2.10;;;;;;;18.67;41.01;98665.05;273077;1280;22104;-79
2023/03/13 02:55:04;;;;;;;3.10;1.60;;;;;;;18.84;40.85;98669.11;272811;1281;23301;-82
2023/03/13 03:01:07;;;;;;;3.50;2.20;;;;;;;18.86;40.98;98675.52;272927;1281;22592;-81
2023/03/13 03:07:13;;;;;;;4.20;1.80;;;;;;;18.94;40.92;98682.55;272822;1286;22362;-80
2023/03/13 03:13:16;;;;;;;3.20;1.90;;;;;;;19.04;40.96;98678.66;272848;1280;22221;-79
2023/03/13 03:19:19;;;;;;;3.50;1.70;;;;;;;19.09;41.15;98673.77;272919;1286;22334;-79
2023/03/13 03:25:22;;;;;;;4.00;1.70;;;;;;;19.10;41.36;98674.46;272863;1279;22357;-79
2023/03/13 03:31:26;;;;;;;2.90;1.90;;;;;;;19.21;41.44;98674.30;272807;1280;22351;-77
2023/03/13 03:37:31;;;;;;;4.70;1.90;;;;;;;19.24;41.44;98669.35;272857;1283;22133;-80
2023/03/13 03:43:35;;;;;;;3.30;1.50;;;;;;;19.34;41.54;98670.48;273163;1284;22152;-81
2023/03/13 03:49:39;;;;;;;3.80;2.00;;;;;;;19.28;41.67;98667.32;273004;1284;22490;-81
2023/03/13 03:55:44;;;;;;;4.40;1.80;;;;;;;19.39;41.74;98675.19;272972;1287;22387;-81
2023/03/13 04:01:47;;;;;;;3.00;1.80;;;;;;;19.25;41.99;98678.69;273028;1283;22376;-82
2023/03/13 04:07:56;;;;;;;3.30;2.10;;;;;;;19.26;42.40;98675.69;272708;1287;22350;-82
2023/03/13 04:13:59;;;;;;;3.00;1.70;;;;;;;19.38;42.25;98676.41;272896;1286;22228;-82
2023/03/13 04:20:06;;;;;;;3.00;2.00;;;;;;;19.08;42.83;98679.29;272931;1286;22780;-82
2023/03/13 04:26:09;;;;;;;3.50;1.80;;;;;;;19.10;42.96;98679.25;272737;1287;22370;-78
2023/03/13 04:32:14;;;;;;;5.80;2.70;;;;;;;19.08;43.15;98683.91;273034;1280;22143;-79
2023/03/13 04:38:35;;;;;;;4.30;2.00;;;;;;;18.94;43.40;98682.11;273008;1285;22284;-79
2023/03/13 04:44:47;;;;;;;3.50;2.30;;;;;;;18.85;43.78;98674.97;273088;1284;22227;-79
2023/03/13 04:51:08;;;;;;;5.40;2.30;;;;;;;18.90;43.93;98672.73;273065;1283;22099;-80
2023/03/13 04:57:29;;;;;;;3.30;2.20;;;;;;;19.02;43.76;98674.90;272998;1286;22897;-80
2023/03/13 05:03:49;;;;;;;3.00;2.00;;;;;;;19.23;43.71;98673.39;272889;1280;22371;-84
2023/03/13 05:10:13;;;;;;;3.70;1.90;;;;;;;19.29;43.87;98673.08;272636;1282;22130;-80
2023/03/13 05:16:37;;;;;;;4.30;2.00;;;;;;;19.55;43.53;98667.46;272885;1280;22373;-83
2023/03/13 05:23:00;;;;;;;3.40;2.10;;;;;;;19.53;43.59;98663.68;272833;1284;22606;-81
2023/03/13 05:29:22;;;;;;;3.90;2.50;;;;;;;19.45;43.74;98660.32;272870;1284;22402;-83
2023/03/13 05:35:30;;;;;;;5.20;2.20;;;;;;;19.66;43.59;98649.10;272966;1281;23069;-83
2023/03/13 05:41:52;;;;;;;3.70;2.40;;;;;;;19.90;43.37;98639.34;272807;1286;23185;-86
2023/03/13 05:48:14;;;;;;;4.90;2.20;;;;;;;19.82;43.71;98634.73;272917;1286;22128;-86
2023/03/13 05:54:49;;;;;;;4.40;2.50;;;;;;;19.94;43.65;98633.65;272703;1286;22265;-78
2023/03/13 06:01:08;;;;;;;4.50;2.80;;;;;;;19.90;43.95;98638.45;272783;1284;22352;-75
2023/03/13 06:07:19;;;;;;;4.70;2.40;;;;;;;20.00;44.00;98631.84;272802;1280;22191;-80
2023/03/13 06:13:23;;;;;;;4.50;2.60;;;;;;;20.07;44.07;98628.54;272830;1284;22375;-77
2023/03/13 06:19:28;;;;;;;5.70;2.60;;;;;;;20.04;44.12;98623.67;272866;1280;23976;-75
2023/03/13 06:25:33;;;;;;;5.20;2.50;;;;;;;20.05;44.37;98627.27;272838;1284;22172;-81
2023/03/13 06:31:36;;;;;;;8.90;3.30;;;;;;;20.22;44.23;98624.99;272885;1284;22405;-80
2023/03/13 06:37:39;;;;;;;7.20;3.20;;;;;;;20.50;43.93;98623.06;272946;1285;22978;-77
2023/03/13 06:43:43;;;;;;;8.10;2.80;;;;;;;20.82;43.39;98618.92;272875;1282;22416;-79
2023/03/13 06:49:46;;;;;;;9.70;3.40;;;;;;;21.33;43.04;98616.06;272804;1283;22227;-76
2023/03/13 06:55:49;;;;;;;3.50;2.00;;;;;;;21.49;42.84;98616.47;272810;1286;22182;-76
2023/03/13 07:01:52;;;;;;;5.70;2.50;;;;;;;21.78;42.31;98610.29;272842;1280;22218;-77
2023/03/13 07:07:55;;;;;;;4.80;2.10;;;;;;;21.97;42.13;98606.27;272826;1284;22432;-77
2023/03/13 07:14:00;;;;;;;5.80;2.20;;;;;;;22.09;41.96;98601.48;272760;1279;23136;-77
2023/03/13 07:20:18;;;;;;;7.50;2.50;;;;;;;22.07;42.07;98604.45;272775;1280;22813;-77
2023/03/13 07:26:21;;;;;;;5.00;2.00;;;;;;;22.44;41.72;98608.91;272872;1287;22211;-77
2023/03/13 07:32:24;;;;;;;6.10;2.50;;;;;;;22.32;41.86;98610.91;272888;1283;22445;-77
2023/03/13 07:38:27;;;;;;;6.30;2.60;;;;;;;22.49;41.74;98604.90;272879;1280;22369;-77
2023/03/13 07:44:30;;;;;;;7.00;2.80;;;;;;;22.46;41.94;98592.56;272919;1280;22386;-77
2023/03/13 07:50:33;;;;;;;4.60;2.10;;;;;;;22.39;42.11;98581.90;272814;1286;111379;-77
2023/03/13 07:56:36;;;;;;;6.60;2.60;;;;;;;21.96;42.65;98575.52;272900;1280;22405;-77
2023/03/13 08:02:39;;;;;;;6.00;2.20;;;;;;;21.94;42.68;98568.05;272869;1283;22426;-77
2023/03/13 08:08:43;;;;;;;8.00;2.20;;;;;;;21.70;43.18;98566.67;272891;1280;22373;-77
2023/03/13 08:14:46;;;;;;;2.80;1.80;;;;;;;21.89;42.92;98567.80;272869;1280;22497;-77
2023/03/13 08:20:49;;;;;;;6.00;2.00;;;;;;;22.27;42.64;98562.02;272894;1280;22997;-77
2023/03/13 08:26:54;;;;;;;8.90;2.30;;;;;;;22.85;42.04;98562.60;272789;1286;22419;-77
2023/03/13 08:32:57;;;;;;;6.80;2.10;;;;;;;22.66;42.13;98555.65;272931;1283;22351;-77
2023/03/13 08:39:04;;;;;;;8.20;2.50;;;;;;;23.08;41.44;98546.10;272877;1283;22132;-77
2023/03/13 08:45:08;;;;;;;7.00;2.40;;;;;;;23.32;41.03;98538.33;272840;1280;22219;-77
2023/03/13 08:51:13;;;;;;;6.90;2.10;;;;;;;23.22;41.16;98530.67;272851;1271;22131;-78
2023/03/13 08:57:16;;;;;;;6.30;1.90;;;;;;;23.50;40.67;98521.16;272865;1280;22354;-77
2023/03/13 09:03:19;;;;;;;6.40;2.20;;;;;;;24.08;39.96;98513.55;272868;1280;22307;-77
2023/03/13 09:09:22;;;;;;;7.20;2.20;;;;;;;23.53;40.45;98507.80;272871;1280;22829;-77
2023/03/13 09:15:26;;;;;;;7.40;2.10;;;;;;;23.75;40.30;98504.20;272851;1283;22215;-77
2023/03/13 09:21:31;;;;;;;7.80;2.20;;;;;;;23.57;40.29;98495.27;272861;1287;22714;-77
2023/03/13 09:27:35;;;;;;;9.00;2.10;;;;;;;23.51;40.17;98492.59;272797;1281;22158;-77
2023/03/13 09:33:38;;;;;;;3.80;1.70;;;;;;;23.30;40.08;98488.59;272864;1284;22375;-77
2023/03/13 09:39:41;;;;;;;5.50;1.90;;;;;;;23.25;40.20;98484.45;272898;1277;22102;-77
2023/03/13 09:45:48;;;;;;;6.60;1.70;;;;;;;23.73;39.66;98486.38;272806;1280;22185;-77
2023/03/13 09:51:58;;;;;;;6.60;1.90;;;;;;;23.90;39.58;98479.05;272855;1280;22395;-77
2023/03/13 09:58:15;;;;;;;6.20;1.70;;;;;;;23.69;39.68;98469.94;272839;1286;23249;-77
2023/03/13 10:04:21;;;;;;;;;;;;;;;23.75;39.66;98461.92;272874;1279;22393;-77
2023/03/13 10:10:58;;;;;;;7.00;1.90;;;;;;;24.32;39.10;98451.02;272879;1280;23015;-77
2023/03/13 10:17:12;;;;;;;6.30;1.70;;;;;;;24.21;38.96;98432.09;271560;1286;22423;-77
2023/03/13 10:23:20;;;;;;;5.00;1.50;;;;;;;24.24;39.11;98429.73;271516;1286;23155;-77
2023/03/13 10:29:25;;;;;;;4.20;1.50;;;;;;;23.52;39.41;98428.05;271627;1286;22451;-77
2023/03/13 10:35:35;;;;;;;4.20;1.10;;;;;;;23.74;38.94;98423.88;271639;1289;22345;-77
2023/03/13 10:41:38;;;;;;;5.50;1.40;;;;;;;24.59;38.09;98408.10;271511;1286;22350;-77
2023/03/13 10:47:41;;;;;;;6.70;1.30;;;;;;;24.90;37.83;98403.31;271606;1286;22163;-77
2023/03/13 10:53:44;;;;;;;4.60;1.10;;;;;;;25.04;37.36;98394.77;272432;1280;22217;-77
2023/03/13 10:59:49;;;;;;;4.80;1.50;;;;;;;25.12;37.08;98385.36;272909;1280;22370;-77
2023/03/13 11:05:54;;;;;;;9.60;2.10;;;;;;;26.40;35.44;98376.67;272760;1280;22235;-77
2023/03/13 11:12:13;;;;;;;5.50;1.20;;;;;;;26.50;34.67;98371.47;272861;1283;22348;-77
2023/03/13 11:18:22;;;;;;;4.40;1.10;;;;;;;26.24;34.40;98367.33;272844;1280;22328;-77
2023/03/13 11:24:50;;;;;;;3.80;0.80;;;;;;;26.68;33.75;98355.70;272894;1279;23602;-77
2023/03/13 11:30:59;;;;;;;3.10;1.00;;;;;;;27.14;33.35;98352.05;272895;1279;22390;-77
2023/03/13 11:37:14;;;;;;;3.40;0.80;;;;;;;27.58;32.53;98342.13;272892;1280;22389;-78
2023/03/13 11:43:45;;;;;;;3.60;0.90;;;;;;;27.76;31.94;98333.92;272775;1281;22352;-77
2023/03/13 11:50:06;;;;;;;2.60;0.90;;;;;;;27.40;31.65;98323.40;272903;1279;22122;-77
2023/03/13 11:56:24;;;;;;;2.50;1.00;;;;;;;27.63;31.30;98319.77;272859;1281;22432;-77
2023/03/13 12:02:35;;;;;;;1.80;0.80;;;;;;;27.19;31.54;98300.92;272914;1278;22369;-77
2023/03/13 12:08:41;;;;;;;3.80;1.00;;;;;;;26.99;31.40;98301.77;272890;1280;22530;-77
2023/03/13 12:15:15;;;;;;;1.80;0.70;;;;;;;26.67;31.30;98289.75;272921;1280;22378;-77
2023/03/13 12:21:29;;;;;;;1.20;0.60;;;;;;;26.80;31.22;98274.67;272880;1280;22388;-78
2023/03/13 12:27:37;;;;;;;1.50;0.70;;;;;;;26.49;31.13;98249.63;272799;1280;22406;-77
2023/03/13 12:34:15;;;;;;;2.10;0.80;;;;;;;27.20;30.57;98246.41;272776;1281;22315;-77
2023/03/13 12:40:37;;;;;;;4.30;0.90;;;;;;;27.48;30.32;98228.73;272822;1279;23009;-77
2023/03/13 12:46:56;;;;;;;1.60;0.60;;;;;;;27.85;30.11;98215.97;272865;1279;22573;-77
2023/03/13 12:53:29;;;;;;;1.60;0.90;;;;;;;27.54;30.04;98208.20;272883;1287;22085;-75
2023/03/13 13:00:04;;;;;;;3.30;0.80;;;;;;;26.94;30.17;98207.14;272784;1280;22365;-76
2023/03/13 13:06:10;;;;;;;3.80;1.30;;;;;;;27.15;29.85;98203.23;272792;1280;23125;-75
2023/03/13 13:12:24;;;;;;;2.70;0.90;;;;;;;27.72;29.58;98199.48;272803;1280;22333;-76
2023/03/13 13:18:32;;;;;;;1.80;0.70;;;;;;;26.92;30.10;98194.70;272675;1279;23142;-75
2023/03/13 13:24:47;;;;;;;1.20;0.70;;;;;;;26.98;30.35;98202.83;272896;1280;22246;-76
2023/03/13 13:30:51;;;;;;;2.30;0.90;;;;;;;27.38;30.11;98199.95;272706;1283;22198;-76
2023/03/13 13:37:18;;;;;;;2.30;1.00;;;;;;;27.20;30.45;98204.32;272894;1279;22740;-76
2023/03/13 13:43:23;;;;;;;4.10;1.10;;;;;;;26.83;31.49;98206.89;272758;1280;22195;-76
2023/03/13 13:49:31;;;;;;;2.00;1.00;;;;;;;26.80;31.89;98210.16;272917;1279;22346;-76
2023/03/13 13:55:42;;;;;;;4.70;1.20;;;;;;;26.44;32.51;98207.85;272815;1283;22211;-76
2023/03/13 14:02:34;;;;;;;4.20;0.90;;;;;;;26.65;32.87;98214.70;272893;1280;22374;-76
2023/03/13 14:08:40;;;;;;;2.40;0.70;;;;;;;26.94;33.58;98204.81;271692;1286;22900;-75
2023/03/13 14:14:43;;;;;;;1.10;0.70;;;;;;;26.09;35.58;98199.39;271637;1292;22450;-75
2023/03/13 14:21:12;;;;;;;2.50;0.80;;;;;;;26.05;36.27;98204.95;271784;1291;22460;-75
2023/03/13 14:27:17;;;;;;;1.50;0.80;;;;;;;25.99;36.80;98195.58;271607;1285;22912;-76
2023/03/13 14:33:21;;;;;;;2.00;1.00;;;;;;;25.52;37.15;98196.35;271782;1286;22236;-76
2023/03/13 14:39:30;;;;;;;2.60;1.00;;;;;;;25.64;37.03;98190.94;272571;1286;22434;-76
2023/03/13 14:45:35;;;;;;;2.20;1.00;;;;;;;25.33;37.33;98187.88;272927;1279;22276;-76
2023/03/13 14:51:39;;;;;;;1.90;0.90;;;;;;;25.17;37.37;98177.54;272933;1280;23106;-76
2023/03/13 14:57:58;;;;;;;2.50;1.10;;;;;;;24.89;37.65;98179.82;272969;1281;22977;-76
2023/03/13 15:04:01;;;;;;;3.00;1.90;;;;;;;24.79;37.69;98174.49;272930;1280;23020;-76
2023/03/13 15:10:26;;;;;;;2.00;1.30;;;;;;;24.77;37.77;98167.76;272881;1286;22219;-77
2023/03/13 15:16:29;;;;;;;3.20;1.30;;;;;;;24.88;37.73;98162.98;272930;1285;22222;-75
2023/03/13 15:22:39;;;;;;;3.50;1.40;;;;;;;25.04;37.56;98155.27;272881;1283;22079;-78
2023/03/13 15:28:42;;;;;;;1.80;1.10;;;;;;;24.71;37.93;98158.08;272778;1280;22630;-76
2023/03/13 15:34:45;;;;;;;2.40;1.00;;;;;;;24.39;38.79;98154.99;272815;1279;22440;-76
2023/03/13 15:40:49;;;;;;;3.20;1.30;;;;;;;24.56;39.56;98151.84;272846;1280;22302;-76
2023/03/13 15:46:52;;;;;;;2.80;1.30;;;;;;;24.38;39.84;98142.34;272781;1280;22266;-76
2023/03/13 15:52:59;;;;;;;2.10;1.30;;;;;;;24.38;39.65;98144.04;272786;1280;22279;-76
2023/03/13 15:59:10;;;;;;;2.80;1.40;;;;;;;24.48;39.42;98138.55;272725;1280;23199;-75
2023/03/13 16:05:14;;;;;;;2.90;1.50;;;;;;;24.45;39.48;98132.02;272662;1280;22457;-76
2023/03/13 16:11:17;;;;;;;3.60;1.30;;;;;;;24.59;39.15;98134.34;272761;1280;22502;-76
2023/03/13 16:17:21;;;;;;;3.10;1.50;;;;;;;24.35;39.47;98133.76;272758;1280;22546;-76
2023/03/13 16:23:29;;;;;;;3.00;1.50;;;;;;;23.95;39.69;98138.63;272754;1280;23128;-75
2023/03/13 16:29:32;;;;;;;3.20;1.60;;;;;;;23.92;39.70;98144.41;272900;1280;22364;-76
2023/03/13 16:35:35;;;;;;;3.60;1.70;;;;;;;23.67;39.90;98138.35;272876;1280;23060;-76
2023/03/13 16:41:39;;;;;;;2.30;1.70;;;;;;;23.66;39.96;98135.94;272803;1280;22151;-77
2023/03/13 16:47:43;;;;;;;3.30;1.60;;;;;;;23.64;39.99;98136.73;272936;1284;22220;-77
2023/03/13 16:53:48;;;;;;;2.70;1.60;;;;;;;23.48;40.24;98140.21;272798;1279;22171;-80
2023/03/13 16:59:51;;;;;;;2.60;1.30;;;;;;;23.43;40.37;98134.71;272905;1281;22475;-81
2023/03/13 17:05:54;;;;;;;3.00;1.50;;;;;;;23.87;39.67;98127.70;272880;1280;22480;-81
2023/03/13 17:12:03;;;;;;;3.20;1.80;;;;;;;23.81;39.78;98123.30;272893;1282;23116;-80
2023/03/13 17:18:07;;;;;;;3.20;1.90;;;;;;;23.94;39.70;98116.02;272885;1284;22105;-81
2023/03/13 17:24:12;;;;;;;3.50;1.70;;;;;;;24.04;39.55;98106.52;272865;1280;24297;-81
2023/03/13 17:30:18;;;;;;;2.90;1.90;;;;;;;23.97;39.65;98103.48;272903;1281;22115;-81
2023/03/13 17:36:26;;;;;;;5.10;2.10;;;;;;;23.85;39.75;98101.44;272905;1280;22703;-81
2023/03/13 17:42:29;;;;;;;4.20;2.00;;;;;;;23.87;39.65;98093.29;272871;1286;22389;-80
2023/03/13 17:48:32;;;;;;;5.30;2.50;;;;;;;23.91;39.50;98083.59;272991;1280;23426;-80
2023/03/13 17:54:35;;;;;;;5.20;2.40;;;;;;;23.94;39.54;98070.30;272940;1284;22098;-81
2023/03/13 18:00:45;;;;;;;5.80;2.70;;;;;;;23.91;39.62;98066.84;272876;1281;22684;-81
2023/03/13 18:06:52;;;;;;;6.40;3.30;;;;;;;23.62;40.00;98058.38;272848;1279;22946;-81
2023/03/13 18:12:58;;;;;;;5.90;3.40;;;;;;;23.31;40.49;98053.85;272830;1280;22980;-81
2023/03/13 18:19:04;;;;;;;7.60;3.40;;;;;;;23.05;40.85;98046.27;272773;1280;23043;-81
2023/03/13 18:25:09;;;;;;;6.10;3.20;;;;;;;22.93;40.59;98032.63;272782;1280;22538;-81
2023/03/13 18:31:12;;;;;;;6.00;3.10;;;;;;;22.90;40.16;98018.21;272815;1277;22928;-78
2023/03/13 18:37:23;;;;;;;7.20;3.70;;;;;;;22.88;40.44;98001.09;272882;1279;22117;-78
2023/03/13 18:43:26;;;;;;;7.70;3.80;;;;;;;22.87;40.52;97986.57;272920;1283;22218;-87
2023/03/13 18:49:30;;;;;;;6.60;3.70;;;;;;;22.93;40.40;97974.16;272906;1284;23226;-81
2023/03/13 18:55:33;;;;;;;8.10;4.20;;;;;;;22.93;40.42;97955.31;272889;1282;22334;-82
2023/03/13 19:01:39;;;;;;;8.90;4.30;;;;;;;22.52;40.88;97931.20;272854;1279;22222;-81
2023/03/13 19:07:43;;;;;;;11.00;4.00;;;;;;;22.63;40.55;97926.90;272852;1280;22330;-81
2023/03/13 19:13:47;;;;;;;9.00;3.80;;;;;;;22.40;40.71;97937.28;272839;1284;23061;-83
2023/03/13 19:19:55;;;;;;;8.40;4.40;;;;;;;21.96;41.28;97927.23;272840;1280;22099;-83
2023/03/13 19:26:09;;;;;;;11.00;4.40;;;;;;;22.01;41.41;97923.52;272777;1281;22214;-83
2023/03/13 19:32:18;;;;;;;8.50;4.70;;;;;;;21.93;41.62;97914.58;272881;1280;22355;-86
2023/03/13 19:38:21;;;;;;;10.60;3.80;;;;;;;21.86;41.98;97910.63;273006;1281;22190;-82
2023/03/13 19:44:24;;;;;;;9.30;4.30;;;;;;;21.53;42.64;97907.63;272965;1284;22423;-81
2023/03/13 19:50:28;;;;;;;9.00;4.10;;;;;;;21.33;42.40;97913.86;272744;1283;153882;-80
2023/03/13 19:56:32;;;;;;;11.00;4.40;;;;;;;21.08;42.53;97918.48;272895;1286;22344;-86
2023/03/13 20:02:36;;;;;;;10.80;4.50;;;;;;;20.76;43.41;97911.70;272784;1287;22322;-86
2023/03/13 20:08:39;;;;;;;12.20;4.60;;;;;;;20.46;43.92;97913.33;272835;1283;22125;-84
2023/03/13 20:14:43;;;;;;;10.20;4.30;;;;;;;20.64;43.74;97915.27;272758;1287;23083;-84
2023/03/13 20:20:47;;;;;;;9.30;4.40;;;;;;;20.47;43.97;97921.16;272949;1280;22235;-87
2023/03/13 20:26:50;;;;;;;7.40;4.00;;;;;;;20.51;43.66;97906.05;272805;1284;22418;-86
2023/03/13 20:32:55;;;;;;;8.20;4.20;;;;;;;20.24;44.26;97891.16;272871;1287;23038;-89
2023/03/13 20:39:05;;;;;;;10.10;4.10;;;;;;;20.26;43.77;97889.52;272844;1286;22938;-89
2023/03/13 20:45:13;;;;;;;9.80;4.20;;;;;;;20.15;43.30;97885.11;272625;1279;22416;-84
2023/03/13 20:51:16;;;;;;;6.30;3.60;;;;;;;20.37;42.41;97876.66;272769;1279;22251;-79
2023/03/13 20:57:20;;;;;;;8.50;4.20;;;;;;;20.43;41.91;97877.71;272674;1280;22929;-85
2023/03/13 21:03:25;;;;;;;6.20;3.40;;;;;;;20.64;41.28;97868.45;272649;1280;22441;-89
2023/03/13 21:09:32;;;;;;;6.70;3.20;;;;;;;20.56;41.20;97867.94;272705;1287;22212;-87
2023/03/13 21:15:39;;;;;;;5.70;3.00;;;;;;;20.87;40.37;97855.42;272870;1286;22391;-88
2023/03/13 21:21:44;;;;;;;6.50;3.20;;;;;;;20.93;39.84;97848.80;272779;1287;23161;-91
2023/03/13 21:27:57;;;;;;;7.50;2.60;;;;;;;21.10;39.27;97840.88;272797;1287;22384;-89
2023/03/13 21:34:00;;;;;;;8.40;2.50;;;;;;;21.12;39.04;97821.60;272834;1287;22811;-90
2023/03/13 21:40:07;;;;;;;6.70;2.40;;;;;;;21.25;38.83;97816.75;272787;1287;23142;-87
2023/03/13 21:46:13;;;;;;;6.40;2.50;;;;;;;21.44;38.47;97812.49;272784;1287;22227;-90
2023/03/13 21:52:18;;;;;;;6.50;2.30;;;;;;;21.27;38.61;97805.52;272871;1286;22341;-90
2023/03/13 21:58:21;;;;;;;5.40;2.60;;;;;;;21.16;38.92;97796.27;272750;1279;23137;-89
2023/03/13 22:04:25;;;;;;;5.80;2.50;;;;;;;21.20;38.77;97784.86;272852;1286;22136;-88
2023/03/13 22:10:28;;;;;;;6.50;2.40;;;;;;;21.32;38.90;97773.23;272759;1286;22404;-88
2023/03/13 22:16:32;;;;;;;4.80;2.30;;;;;;;21.27;38.84;97764.91;272822;1286;22144;-90
2023/03/13 22:22:36;;;;;;;4.50;2.00;;;;;;;21.31;38.45;97764.84;272739;1285;22106;-89
2023/03/13 22:28:40;;;;;;;4.60;2.00;;;;;;;21.69;38.05;97766.27;272849;1280;22146;-90
2023/03/13 22:35:12;;;;;;;3.80;1.50;;;;;;;21.57;38.08;97773.25;272799;1286;22099;-92
2023/03/13 22:42:23;;;;;;;2.70;1.40;;;;;;;21.86;37.59;97783.27;272109;1293;22116;-92
2023/03/13 22:48:47;;;;;;;3.30;1.60;;;;;;;22.06;37.22;97774.67;272858;1288;22330;-91
2023/03/13 22:55:56;;;;;;;;;;;;;;;;;;;;;
2023/03/13 23:02:54;;;;;;;2.00;1.40;;;;;;;21.81;38.25;97752.23;273033;1287;22919;-89
2023/03/13 23:08:59;;;;;;;4.90;1.80;;;;;;;21.66;38.15;97748.95;272692;1287;22136;-89
2023/03/13 23:15:04;;;;;;;4.60;1.60;;;;;;;21.73;38.17;97742.55;272992;1286;22335;-90
2023/03/13 23:21:13;;;;;;;3.00;1.40;;;;;;;21.59;38.12;97734.88;272947;1283;22208;-90
2023/03/13 23:27:20;;;;;;;3.20;1.30;;;;;;;21.52;38.04;97721.17;272808;1288;22866;-90
2023/03/13 23:33:49;;;;;;;4.30;1.70;;;;;;;21.44;38.22;97707.64;272757;1287;22270;-91
2023/03/13 23:40:03;;;;;;;2.50;1.40;;;;;;;21.49;38.08;97704.88;272987;1288;22147;-91
2023/03/13 23:46:15;;;;;;;2.60;1.30;;;;;;;21.57;37.86;97690.89;272761;1288;22161;-89
2023/03/13 23:52:18;;;;;;;2.40;1.30;;;;;;;21.56;37.80;97679.96;272333;1288;23057;-89
2023/03/13 23:58:22;;;;;;;1.90;1.00;;;;;;;21.62;37.60;97667.59;272647;1288;22327;-90
